CheckWX is a tool to help pilots better visualize weather data.  It is not intended as a substitute for an official pre-flight weather briefing.

02:20:29 UTC

CWWU METAR
Ingenika Point Airport
Long Pond, Canada
Current

8 hours ago

CWWU 181821Z 36026KT 2SM -RA BR BKN013 BKN021 OVC033 08/08 A2993 RMK FG3SF3SC1SC1 SLP138
Observed
Sep-18 @ 18:21 UTC
Wind
  • 360° at 26 KTS
Visibility
2 SM
Flight Rules
IFR
Conditions
Light Rain, Mist
Cloud Levels
  • Broken at 1,300' AGL
  • Broken at 2,100' AGL
  • Overcast at 3,300' AGL
Temperature
C / 46°F
Dewpoint
C / 46°F
Humidity
100%
Altimeter
29.93" Hg
Pressure
1013.52 hPa
Previous

9 hours ago

CWWU 181740Z 01026G31KT 3SM -RA BR BKN009 OVC025 09/08 A2990 RMK FG1SF6SC1 SLP130
Observed
Sep-18 @ 17:40 UTC
Wind
  • 010° at 26 KTS
  • Gusting to 31 KTS
Visibility
3 SM
Flight Rules
IFR
Conditions
Light Rain, Mist
Cloud Levels
  • Broken at 900' AGL
  • Overcast at 2,500' AGL
Temperature
C / 48°F
Dewpoint
C / 46°F
Humidity
94%
Altimeter
29.9" Hg
Pressure
1012.52 hPa
Previous

9 hours ago

CWWU 181719Z 01022G32KT 2SM -RA BR BKN008 OVC020 08/08 A2990 RMK FG3SF4SC1 SLP127
Observed
Sep-18 @ 17:19 UTC
Wind
  • 010° at 22 KTS
  • Gusting to 32 KTS
Visibility
2 SM
Flight Rules
IFR
Conditions
Light Rain, Mist
Cloud Levels
  • Broken at 800' AGL
  • Overcast at 2,000' AGL
Temperature
C / 46°F
Dewpoint
C / 46°F
Humidity
100%
Altimeter
29.9" Hg
Pressure
1012.52 hPa